createdAt,value
2022-09-10T00:01:19.450Z,22.40
2022-09-10T00:03:49.969Z,20.73
2022-09-10T00:06:18.937Z,20.30
2022-09-10T00:08:47.615Z,19.58
2022-09-10T00:11:15.945Z,19.63
2022-09-10T00:13:45.254Z,20.15
2022-09-10T00:16:16.132Z,19.38
2022-09-10T00:18:44.436Z,17.85
2022-09-10T00:21:16.265Z,19.13
2022-09-10T00:23:45.744Z,18.42
2022-09-10T00:26:16.802Z,16.90
2022-09-10T00:28:45.068Z,17.15
2022-09-10T00:31:14.279Z,17.48
2022-09-10T00:33:42.763Z,17.42
2022-09-10T00:36:21.556Z,17.05
2022-09-10T00:38:50.843Z,16.75
2022-09-10T00:41:20.563Z,15.60
2022-09-10T00:43:58.946Z,15.07
2022-09-10T00:46:32.139Z,15.60
2022-09-10T00:49:03.935Z,14.20
2022-09-10T00:51:36.013Z,15.52
2022-09-10T00:54:06.086Z,14.20
2022-09-10T00:56:34.706Z,14.60
2022-09-10T00:59:03.796Z,13.60
2022-09-10T01:01:33.506Z,13.65
2022-09-10T01:04:02.360Z,13.63
2022-09-10T01:06:30.307Z,14.43
2022-09-10T01:09:01.295Z,13.52
2022-09-10T01:11:42.515Z,13.15
2022-09-10T01:14:24.753Z,12.82
2022-09-10T01:17:04.449Z,12.25
2022-09-10T01:19:54.698Z,12.18
2022-09-10T01:22:32.467Z,12.38
2022-09-10T01:25:11.878Z,12.48
2022-09-10T01:27:44.922Z,12.13
2022-09-10T01:30:19.213Z,11.63
2022-09-10T01:32:58.050Z,10.77
2022-09-10T01:35:30.906Z,11.20
2022-09-10T01:38:04.591Z,11.60
2022-09-10T01:40:34.165Z,10.60
2022-09-10T01:43:05.776Z,11.10
2022-09-10T01:45:43.368Z,10.32
2022-09-10T01:48:34.985Z,10.63
2022-09-10T01:51:09.062Z,10.60
2022-09-10T01:53:52.258Z,9.33
2022-09-10T01:56:39.165Z,10.02
2022-09-10T01:59:18.917Z,10.35
2022-09-10T02:01:51.533Z,10.05
2022-09-10T02:04:22.130Z,9.70
2022-09-10T02:06:52.141Z,8.93
2022-09-10T02:09:20.948Z,8.60
2022-09-10T02:11:51.075Z,9.32
2022-09-10T02:14:21.624Z,9.15
2022-09-10T02:16:58.215Z,8.80
2022-09-10T02:19:26.571Z,8.52
2022-09-10T02:21:56.926Z,7.88
2022-09-10T02:24:24.854Z,7.68
2022-09-10T02:26:52.773Z,8.35
2022-09-10T02:29:22.643Z,7.85
2022-09-10T02:31:51.333Z,7.60
2022-09-10T02:34:20.223Z,7.47
2022-09-10T02:36:48.243Z,8.00
2022-09-10T02:39:16.225Z,7.30
2022-09-10T02:41:44.184Z,7.35
2022-09-10T02:44:12.017Z,7.20
2022-09-10T02:46:41.261Z,6.72
2022-09-10T02:49:09.914Z,6.85
2022-09-10T02:51:38.741Z,6.43
2022-09-10T02:54:06.722Z,6.82
2022-09-10T02:56:34.662Z,6.70
2022-09-10T02:59:02.538Z,6.35
2022-09-10T03:01:30.630Z,6.65
2022-09-10T03:04:00.314Z,6.28
2022-09-10T03:06:28.605Z,6.38
2022-09-10T03:08:57.551Z,5.95
2022-09-10T03:11:27.393Z,5.57
2022-09-10T03:13:56.065Z,5.55
2022-09-10T03:16:24.367Z,6.07
2022-09-10T03:18:52.764Z,6.72
2022-09-10T03:21:25.022Z,5.32
2022-09-10T03:23:54.775Z,5.47
2022-09-10T03:26:25.159Z,5.40
2022-09-10T03:28:53.411Z,5.88
2022-09-10T03:31:21.693Z,5.32
2022-09-10T03:33:50.590Z,5.63
2022-09-10T03:36:19.033Z,4.85
2022-09-10T03:38:48.265Z,5.32
2022-09-10T03:41:16.203Z,5.28
2022-09-10T03:43:44.076Z,5.10
2022-09-10T03:46:12.279Z,4.90
2022-09-10T03:48:40.551Z,4.90
2022-09-10T03:51:10.801Z,5.30
2022-09-10T03:53:39.553Z,4.15
2022-09-10T03:56:09.118Z,4.82
2022-09-10T03:58:37.333Z,4.93
2022-09-10T04:01:05.850Z,4.63
2022-09-10T04:03:34.066Z,4.28
2022-09-10T04:06:01.939Z,4.22
2022-09-10T04:08:29.849Z,4.60
2022-09-10T04:11:03.153Z,4.70
2022-09-10T04:13:32.688Z,4.22
2022-09-10T04:16:01.457Z,3.97
2022-09-10T04:18:32.058Z,4.22
2022-09-10T04:20:59.963Z,3.92
2022-09-10T04:23:29.377Z,4.13
2022-09-10T04:25:57.434Z,3.58
2022-09-10T04:28:25.408Z,3.97
2022-09-10T04:30:54.824Z,4.13
2022-09-10T04:33:22.669Z,3.95
2022-09-10T04:35:50.523Z,4.07
2022-09-10T04:38:18.410Z,3.53
2022-09-10T04:40:47.621Z,3.60
2022-09-10T04:43:15.823Z,3.45
2022-09-10T04:45:43.814Z,3.55
2022-09-10T04:48:13.070Z,3.95
2022-09-10T04:50:59.286Z,3.65
2022-09-10T04:53:31.162Z,3.38
2022-09-10T04:55:59.053Z,3.08
2022-09-10T04:58:26.902Z,3.13
2022-09-10T05:00:56.037Z,3.22
2022-09-10T05:03:25.777Z,2.90
2022-09-10T05:05:53.654Z,3.08
2022-09-10T05:08:21.531Z,3.65
2022-09-10T05:10:49.641Z,2.63
2022-09-10T05:13:17.671Z,3.30
2022-09-10T05:15:46.081Z,2.97
2022-09-10T05:18:14.103Z,3.03
2022-09-10T05:20:44.375Z,2.63
2022-09-10T05:23:12.917Z,2.83
2022-09-10T05:25:40.778Z,2.85
2022-09-10T05:28:09.421Z,2.70
2022-09-10T05:30:37.268Z,3.10
2022-09-10T05:33:05.258Z,2.72
2022-09-10T05:35:33.264Z,3.53
2022-09-10T05:38:02.786Z,3.03
2022-09-10T05:40:30.739Z,2.70
2022-09-10T05:43:00.124Z,2.90
2022-09-10T05:45:28.083Z,2.95
2022-09-10T05:47:57.147Z,2.75
2022-09-10T05:50:25.236Z,2.65
2022-09-10T05:52:53.263Z,2.78
2022-09-10T05:55:22.477Z,1.95
2022-09-10T05:57:50.554Z,2.85
2022-09-10T06:00:18.571Z,2.30
2022-09-10T06:02:47.988Z,2.75
2022-09-10T06:05:16.139Z,2.60
2022-09-10T06:07:44.125Z,2.72
2022-09-10T06:10:12.017Z,2.25
2022-09-10T06:12:45.925Z,2.20
2022-09-10T06:15:14.031Z,2.40
2022-09-10T06:17:41.948Z,2.67
2022-09-10T06:20:13.434Z,2.50
2022-09-10T06:22:41.515Z,2.33
2022-09-10T06:25:10.226Z,2.35
2022-09-10T06:27:38.224Z,2.50
2022-09-10T06:30:08.630Z,2.58
2022-09-10T06:32:36.543Z,2.35
2022-09-10T06:35:04.486Z,2.17
2022-09-10T06:37:35.091Z,2.25
2022-09-10T06:40:03.425Z,2.42
2022-09-10T06:42:32.184Z,2.30
2022-09-10T06:45:00.379Z,2.08
2022-09-10T06:50:17.524Z,2.58
2022-09-10T06:52:45.369Z,2.28
2022-09-10T06:55:13.249Z,1.88
2022-09-10T06:57:41.086Z,2.30
2022-09-10T07:00:10.121Z,2.42
2022-09-10T07:02:39.338Z,2.17
2022-09-10T07:05:07.865Z,1.88
2022-09-10T07:07:35.755Z,2.10
2022-09-10T07:10:03.690Z,1.85
2022-09-10T07:12:32.879Z,1.80
2022-09-10T07:15:00.764Z,2.15
2022-09-10T07:17:31.746Z,2.00
2022-09-10T07:20:01.368Z,1.65
2022-09-10T07:22:29.234Z,1.85
2022-09-10T07:24:57.119Z,1.77
2022-09-10T07:27:25.281Z,1.90
2022-09-10T07:29:53.206Z,2.03
2022-09-10T07:32:21.095Z,1.98
2022-09-10T07:34:49.107Z,1.65
2022-09-10T07:37:18.380Z,1.65
2022-09-10T07:39:46.792Z,2.05
2022-09-10T07:42:14.822Z,1.70
2022-09-10T07:44:42.710Z,1.98
2022-09-10T07:47:10.629Z,1.75
2022-09-10T07:49:38.870Z,1.40
2022-09-10T07:52:07.256Z,1.63
2022-09-10T07:54:36.486Z,1.58
2022-09-10T07:57:05.780Z,1.23
2022-09-10T07:59:33.725Z,1.98
2022-09-10T08:02:01.684Z,1.63
2022-09-10T08:04:36.510Z,1.67
2022-09-10T08:07:05.183Z,1.80
2022-09-10T08:09:33.318Z,1.73
2022-09-10T08:12:02.621Z,1.33
2022-09-10T08:14:31.607Z,1.17
2022-09-10T08:17:01.090Z,1.50
2022-09-10T08:19:29.764Z,1.60
2022-09-10T08:21:57.714Z,1.50
2022-09-10T08:24:25.640Z,1.40
2022-09-10T08:26:54.550Z,1.58
2022-09-10T08:29:23.769Z,1.45
2022-09-10T08:31:51.703Z,1.45
2022-09-10T08:34:20.046Z,1.45
2022-09-10T08:36:48.007Z,1.52
2022-09-10T08:39:15.991Z,1.50
2022-09-10T08:41:53.776Z,1.52
2022-09-10T08:44:33.782Z,1.48
2022-09-10T08:47:15.530Z,1.67
2022-09-10T08:49:48.259Z,2.40
2022-09-10T08:52:27.144Z,1.70
2022-09-10T08:55:02.859Z,1.50
2022-09-10T08:57:36.174Z,1.73
2022-09-10T09:00:08.702Z,1.60
2022-09-10T09:02:49.496Z,1.67
2022-09-10T09:05:19.806Z,2.05
2022-09-10T09:07:49.406Z,1.95
2022-09-10T09:10:28.293Z,1.80
2022-09-10T09:13:16.235Z,1.83
2022-09-10T09:15:51.971Z,1.70
2022-09-10T09:18:27.991Z,1.67
2022-09-10T09:20:59.148Z,1.92
2022-09-10T09:23:47.986Z,1.70
2022-09-10T09:26:30.519Z,1.88
2022-09-10T09:29:02.533Z,2.55
2022-09-10T09:31:35.855Z,1.73
2022-09-10T09:34:07.883Z,1.88
2022-09-10T09:36:42.401Z,2.00
2022-09-10T09:39:17.581Z,1.95
2022-09-10T09:41:52.801Z,1.95
2022-09-10T09:44:28.359Z,1.58
2022-09-10T09:46:57.596Z,1.67
2022-09-10T09:49:26.142Z,1.90
2022-09-10T09:51:54.856Z,1.70
2022-09-10T09:57:20.589Z,1.65
2022-09-10T09:59:50.294Z,1.92
2022-09-10T10:02:22.743Z,1.75
2022-09-10T10:05:07.053Z,2.05
2022-09-10T10:07:37.182Z,2.00
2022-09-10T10:10:08.354Z,2.03
2022-09-10T10:12:42.643Z,1.88
2022-09-10T10:15:41.085Z,2.80
2022-09-10T10:18:31.641Z,1.77
2022-09-10T10:21:14.270Z,1.90
2022-09-10T10:23:42.362Z,1.98
2022-09-10T10:26:27.602Z,1.73
2022-09-10T10:29:00.091Z,1.73
2022-09-10T10:31:42.641Z,1.50
2022-09-10T10:34:37.316Z,1.45
2022-09-10T10:37:10.356Z,2.13
2022-09-10T10:39:56.462Z,2.10
2022-09-10T10:42:31.115Z,2.25
2022-09-10T10:45:22.680Z,2.28
2022-09-10T10:47:57.128Z,2.05
2022-09-10T10:50:33.707Z,1.77
2022-09-10T10:53:28.452Z,1.98
2022-09-10T10:56:04.382Z,1.80
2022-09-10T10:58:53.923Z,2.30
2022-09-10T11:01:24.195Z,2.00
2022-09-10T11:04:00.956Z,2.13
2022-09-10T11:06:35.353Z,1.83
2022-09-10T11:09:07.835Z,2.13
2022-09-10T11:11:41.196Z,1.95
2022-09-10T11:14:22.628Z,2.20
2022-09-10T11:16:58.481Z,2.03
2022-09-10T11:19:35.598Z,2.65
2022-09-10T11:22:10.651Z,2.13
2022-09-10T11:24:43.958Z,2.47
2022-09-10T11:27:15.618Z,2.20
2022-09-10T11:29:48.506Z,2.50
2022-09-10T11:32:26.984Z,1.80
2022-09-10T11:35:04.811Z,2.20
2022-09-10T11:37:47.396Z,2.13
2022-09-10T11:40:24.329Z,1.88
2022-09-10T11:42:56.300Z,1.80
2022-09-10T11:45:33.109Z,1.73
2022-09-10T11:48:10.358Z,2.40
2022-09-10T11:50:47.405Z,2.30
2022-09-10T11:53:17.600Z,2.00
2022-09-10T11:56:09.570Z,2.20
2022-09-10T11:58:46.782Z,1.98
2022-09-10T12:01:22.985Z,2.17
2022-09-10T12:04:12.429Z,2.30
2022-09-10T12:06:52.197Z,2.40
2022-09-10T12:09:24.628Z,2.40
2022-09-10T12:12:01.072Z,2.45
2022-09-10T12:14:29.026Z,1.73
2022-09-10T12:17:00.599Z,2.15
2022-09-10T12:19:32.443Z,1.90
2022-09-10T12:22:05.046Z,1.75
2022-09-10T12:24:36.147Z,2.50
2022-09-10T12:27:06.618Z,1.92
2022-09-10T12:29:36.665Z,1.65
2022-09-10T12:32:37.651Z,2.55
2022-09-10T12:35:45.059Z,2.40
2022-09-10T12:38:48.744Z,3.22
2022-09-10T12:41:49.874Z,3.25
2022-09-10T12:44:30.904Z,4.13
2022-09-10T12:47:34.332Z,4.20
2022-09-10T12:50:06.561Z,5.25
2022-09-10T12:52:43.643Z,5.22
2022-09-10T12:55:22.330Z,6.10
2022-09-10T12:58:00.093Z,5.13
2022-09-10T13:00:31.666Z,6.47
2022-09-10T13:03:17.049Z,5.95
2022-09-10T13:08:22.915Z,6.85
2022-09-10T13:11:13.403Z,7.00
2022-09-10T13:13:45.086Z,7.97
2022-09-10T13:16:17.164Z,8.27
2022-09-10T13:18:46.598Z,9.25
2022-09-10T13:21:52.257Z,8.45
2022-09-10T13:25:01.870Z,8.85
2022-09-10T13:27:39.868Z,7.40
2022-09-10T13:30:18.199Z,7.00
2022-09-10T13:32:52.160Z,8.10
2022-09-10T13:35:55.985Z,7.57
2022-09-10T13:38:49.615Z,7.90
2022-09-10T13:41:40.251Z,7.78
2022-09-10T13:44:21.453Z,8.07
2022-09-10T13:46:54.978Z,6.82
2022-09-10T13:49:31.557Z,7.38
2022-09-10T13:52:02.004Z,7.15
2022-09-10T13:54:34.948Z,7.60
2022-09-10T13:57:09.311Z,6.97
2022-09-10T13:59:40.794Z,7.40
2022-09-10T14:02:08.924Z,7.18
2022-09-10T14:04:40.869Z,7.30
2022-09-10T14:07:15.868Z,7.30
2022-09-10T14:09:46.432Z,7.03
2022-09-10T14:12:16.017Z,8.48
2022-09-10T14:14:48.797Z,6.88
2022-09-10T14:17:20.110Z,6.72
2022-09-10T14:19:51.995Z,7.28
2022-09-10T14:22:22.195Z,6.95
2022-09-10T14:24:53.503Z,6.45
2022-09-10T14:27:26.089Z,6.30
2022-09-10T14:29:57.223Z,6.53
2022-09-10T14:32:31.640Z,6.68
2022-09-10T14:35:03.635Z,6.15
2022-09-10T14:37:38.770Z,6.82
2022-09-10T14:40:17.675Z,5.75
2022-09-10T14:42:46.485Z,6.07
2022-09-10T14:45:42.435Z,5.95
2022-09-10T14:48:32.654Z,6.22
2022-09-10T14:51:19.262Z,6.22
2022-09-10T14:53:51.437Z,5.55
2022-09-10T14:56:24.347Z,5.55
2022-09-10T14:58:59.138Z,5.30
2022-09-10T15:01:28.922Z,6.13
2022-09-10T15:03:57.530Z,5.70
2022-09-10T15:06:26.962Z,6.68
2022-09-10T15:08:56.759Z,5.80
2022-09-10T15:11:28.635Z,5.45
2022-09-10T15:13:59.216Z,5.00
2022-09-10T15:16:29.598Z,5.25
2022-09-10T15:18:58.218Z,5.72
2022-09-10T15:21:26.448Z,5.25
2022-09-10T15:23:54.354Z,5.57
2022-09-10T15:26:22.247Z,5.32
2022-09-10T15:28:50.193Z,4.72
2022-09-10T15:31:18.555Z,5.15
2022-09-10T15:33:47.848Z,5.40
2022-09-10T15:36:15.934Z,4.80
2022-09-10T15:38:43.851Z,4.95
2022-09-10T15:41:13.327Z,4.47
2022-09-10T15:43:43.830Z,5.10
2022-09-10T15:46:12.421Z,5.00
2022-09-10T15:48:40.709Z,5.38
2022-09-10T15:51:14.891Z,5.05
2022-09-10T15:53:43.737Z,5.20
2022-09-10T15:56:12.878Z,5.03
2022-09-10T15:58:41.191Z,4.85
2022-09-10T16:01:12.460Z,4.47
2022-09-10T16:03:45.331Z,4.93
2022-09-10T16:06:15.533Z,5.40
2022-09-10T16:08:43.491Z,4.57
2022-09-10T16:11:12.721Z,4.25
2022-09-10T16:13:40.665Z,5.28
2022-09-10T16:16:13.365Z,4.15
2022-09-10T16:18:41.542Z,4.07
2022-09-10T16:21:11.573Z,3.97
2022-09-10T16:23:42.275Z,4.75
2022-09-10T16:26:14.794Z,3.70
2022-09-10T16:28:44.192Z,4.93
2022-09-10T16:31:17.370Z,4.47
2022-09-10T16:33:45.603Z,4.40
2022-09-10T16:36:15.113Z,4.10
2022-09-10T16:38:45.350Z,3.80
2022-09-10T16:41:14.678Z,3.95
2022-09-10T16:43:43.545Z,4.45
2022-09-10T16:46:13.169Z,4.50
2022-09-10T16:48:42.898Z,3.90
2022-09-10T16:51:13.577Z,3.95
2022-09-10T16:53:44.253Z,4.47
2022-09-10T16:56:15.792Z,3.53
2022-09-10T16:58:48.132Z,3.85
2022-09-10T17:01:16.945Z,4.15
2022-09-10T17:03:46.282Z,3.30
2022-09-10T17:06:15.742Z,3.88
2022-09-10T17:08:45.205Z,3.70
2022-09-10T17:11:15.234Z,4.20
2022-09-10T17:13:43.721Z,4.03
2022-09-10T17:16:17.406Z,2.97
2022-09-10T17:18:46.047Z,3.45
2022-09-10T17:21:14.440Z,3.75
2022-09-10T17:23:42.424Z,3.40
2022-09-10T17:26:11.106Z,3.30
2022-09-10T17:28:40.843Z,3.47
2022-09-10T17:31:08.897Z,3.50
2022-09-10T17:33:36.798Z,3.70
2022-09-10T17:36:05.543Z,3.42
2022-09-10T17:38:35.572Z,3.58
2022-09-10T17:41:05.361Z,2.90
2022-09-10T17:43:37.509Z,3.45
2022-09-10T17:46:09.265Z,3.17
2022-09-10T17:48:37.967Z,3.38
2022-09-10T17:51:07.038Z,2.78
2022-09-10T17:53:35.816Z,3.22
2022-09-10T17:56:04.871Z,3.15
2022-09-10T17:58:33.601Z,3.05
2022-09-10T18:01:03.429Z,3.33
2022-09-10T18:03:33.539Z,3.15
2022-09-10T18:06:05.085Z,2.88
2022-09-10T18:08:33.386Z,2.67
2022-09-10T18:11:05.698Z,3.00
2022-09-10T18:13:34.219Z,3.05
2022-09-10T18:16:07.213Z,2.75
2022-09-10T18:18:37.315Z,2.80
2022-09-10T18:21:15.827Z,3.00
2022-09-10T18:23:44.393Z,3.00
2022-09-10T18:26:17.742Z,3.08
2022-09-10T18:28:52.399Z,3.20
2022-09-10T18:31:20.545Z,2.83
2022-09-10T18:33:50.174Z,3.20
2022-09-10T18:36:19.847Z,2.90
2022-09-10T18:38:48.170Z,3.10
2022-09-10T18:41:21.542Z,2.90
2022-09-10T18:43:50.162Z,2.67
2022-09-10T18:46:18.983Z,2.85
2022-09-10T18:48:47.678Z,2.65
2022-09-10T18:51:18.710Z,2.97
2022-09-10T18:53:47.335Z,3.03
2022-09-10T18:56:18.397Z,2.65
2022-09-10T18:58:49.976Z,2.60
2022-09-10T19:01:18.823Z,2.53
2022-09-10T19:03:49.935Z,2.47
2022-09-10T19:06:22.966Z,2.33
2022-09-10T19:08:53.579Z,2.47
2022-09-10T19:11:22.346Z,2.58
2022-09-10T19:13:51.627Z,2.78
2022-09-10T19:16:21.580Z,2.63
2022-09-10T19:18:53.490Z,2.10
2022-09-10T19:21:23.467Z,2.40
2022-09-10T19:23:56.221Z,2.60
2022-09-10T19:26:27.308Z,2.85
2022-09-10T19:28:57.511Z,2.30
2022-09-10T19:31:26.665Z,2.30
2022-09-10T19:33:56.540Z,2.35
2022-09-10T19:36:27.474Z,3.33
2022-09-10T19:38:55.852Z,3.28
2022-09-10T19:41:25.507Z,2.67
2022-09-10T19:43:56.236Z,2.58
2022-09-10T19:46:28.214Z,2.88
2022-09-10T19:48:59.285Z,2.83
2022-09-10T19:51:31.091Z,2.53
2022-09-10T19:54:00.347Z,2.75
2022-09-10T19:56:31.082Z,3.80
2022-09-10T19:58:59.647Z,2.72
2022-09-10T20:01:31.133Z,2.08
2022-09-10T20:04:01.659Z,2.20
2022-09-10T20:06:31.030Z,2.40
2022-09-10T20:08:59.720Z,2.60
2022-09-10T20:11:29.933Z,2.60
2022-09-10T20:14:00.603Z,2.63
2022-09-10T20:16:29.458Z,2.35
2022-09-10T20:18:58.422Z,2.58
2022-09-10T20:21:31.186Z,2.45
2022-09-10T20:24:00.495Z,2.33
2022-09-10T20:26:29.857Z,2.65
2022-09-10T20:29:00.679Z,2.90
2022-09-10T20:31:31.205Z,2.70
2022-09-10T20:34:00.728Z,2.60
2022-09-10T20:36:29.630Z,2.70
2022-09-10T20:38:57.582Z,2.08
2022-09-10T20:41:30.255Z,2.47
2022-09-10T20:43:59.637Z,2.35
2022-09-10T20:46:29.730Z,2.65
2022-09-10T20:49:02.717Z,2.50
2022-09-10T20:51:32.799Z,2.15
2022-09-10T20:54:00.854Z,2.50
2022-09-10T20:56:30.314Z,2.10
2022-09-10T20:58:58.618Z,2.20
2022-09-10T21:01:28.337Z,2.28
2022-09-10T21:03:59.708Z,2.28
2022-09-10T21:06:30.080Z,2.22
2022-09-10T21:08:58.783Z,2.40
2022-09-10T21:11:30.454Z,2.15
2022-09-10T21:14:00.027Z,2.25
2022-09-10T21:16:29.603Z,2.35
2022-09-10T21:18:59.513Z,2.10
2022-09-10T21:21:29.098Z,2.15
2022-09-10T21:23:58.213Z,2.10
2022-09-10T21:26:29.661Z,1.73
2022-09-10T21:28:59.741Z,2.25
2022-09-10T21:31:28.763Z,1.90
2022-09-10T21:34:02.443Z,2.13
2022-09-10T21:36:32.348Z,2.28
2022-09-10T21:39:01.887Z,2.17
2022-09-10T21:41:32.970Z,2.30
2022-09-10T21:44:02.973Z,2.00
2022-09-10T21:46:31.221Z,2.60
2022-09-10T21:48:59.400Z,2.05
2022-09-10T21:51:27.731Z,2.42
2022-09-10T21:53:56.921Z,1.80
2022-09-10T21:56:27.553Z,1.90
2022-09-10T21:58:59.190Z,1.73
2022-09-10T22:01:29.607Z,2.00
2022-09-10T22:03:59.566Z,2.40
2022-09-10T22:06:29.570Z,2.20
2022-09-10T22:08:59.143Z,1.70
2022-09-10T22:11:30.416Z,2.33
2022-09-10T22:14:04.141Z,1.90
2022-09-10T22:16:36.260Z,2.20
2022-09-10T22:19:07.743Z,1.95
2022-09-10T22:21:38.282Z,1.95
2022-09-10T22:24:06.769Z,1.70
2022-09-10T22:26:36.599Z,2.15
2022-09-10T22:29:05.879Z,1.75
2022-09-10T22:31:35.579Z,1.88
2022-09-10T22:34:06.332Z,1.80
2022-09-10T22:36:35.972Z,2.22
2022-09-10T22:39:06.879Z,2.17
2022-09-10T22:41:36.347Z,1.90
2022-09-10T22:44:05.968Z,2.15
2022-09-10T22:46:35.238Z,1.80
2022-09-10T22:49:03.302Z,1.80
2022-09-10T22:51:34.167Z,2.00
2022-09-10T22:54:03.230Z,1.67
2022-09-10T22:56:31.227Z,2.03
2022-09-10T22:59:02.040Z,2.40
2022-09-10T23:01:34.373Z,1.80
2022-09-10T23:04:03.577Z,2.10
2022-09-10T23:06:33.524Z,1.83
2022-09-10T23:09:05.385Z,1.70
2022-09-10T23:11:34.011Z,1.80
2022-09-10T23:14:03.378Z,1.98
2022-09-10T23:16:35.273Z,1.50
2022-09-10T23:19:04.733Z,1.70
2022-09-10T23:21:35.899Z,1.65
2022-09-10T23:24:07.263Z,1.75
2022-09-10T23:26:35.504Z,1.90
2022-09-10T23:29:05.263Z,1.73
2022-09-10T23:31:37.389Z,1.90
2022-09-10T23:34:07.552Z,2.05
2022-09-10T23:36:37.205Z,1.55
2022-09-10T23:39:07.795Z,1.77
2022-09-10T23:41:36.022Z,1.40
2022-09-10T23:44:06.218Z,1.63
2022-09-10T23:46:35.596Z,1.67
2022-09-10T23:49:04.139Z,1.70
2022-09-10T23:51:35.064Z,1.90
2022-09-10T23:54:03.137Z,1.42
2022-09-10T23:56:31.122Z,1.58
2022-09-10T23:58:59.459Z,1.50
